Tiempo atmosférico en la estación meteorológica de Alconchel, Badajoz (170 m.)



Fecha
DESCASC
Temp. máxima en grados centígrados (hora)
DESCASC
Temp. mínima en grados centígrados (hora)
DESCASC
Temp. media en grados centígrados
DESCASC
Racha de viento máxima en m/sg (hora)
DESCASC
Velocidad máxima media en intervalos de 10 minutos(hora)
DESCASC
Precipitaciones diarias en mm
DESCASC
Precipitaciones de 00:00 a 06:00 en mm
DESCASC
Precipitaciones de 06:00 a 12:00 en mm
DESCASC
Precipitaciones de 12:00 a 18:00 en mm
DESCASC
Precipitaciones de 18:00 a 24:00 en mm
DESCASC
10-07-2020 38.4 (17:10) 17.5 (07:20) 28 9.17 (21:40) 6.11 (21:40) 0 0 0 0 0
09-07-2020 35.1 (18:00) 14.7 (07:40) 24.9 9.17 (23:10) 5.83 (23:10) 0 0 0 0 0
08-07-2020 34.5 (17:30) 18.8 (07:40) 26.6 8.89 (17:50) 5.83 (18:20) 0 0 0 0 0
07-07-2020 40.9 (18:20) 19.8 (08:00) 30.4 7.78 (18:40) 5.56 (17:40) 0 0 0 0 0
06-07-2020 41.3 (18:10) 19.5 (00:00) 30.4 10.56 (20:50) 7.22 (21:20) 0 0 0 0 0
05-07-2020 40.4 (17:40) 19 (00:00) 29.7 9.44 (22:40) 6.11 (22:40) 0 0 0 0 0
04-07-2020 38.6 (18:40) 14.6 (00:00) 26.6 10.56 (16:00) 5.56 (01:10) 0 0 0 0 0
03-07-2020 34.2 (18:40) 11.3 (07:30) 22.8 10 (23:50) 6.67 (23:50) 0 0 0 0 0
02-07-2020 31.1 (17:10) 15.6 (00:00) 23.4 10.83 (19:00) 6.94 (19:40) 0 0 0 0 0
01-07-2020 35.1 (18:30) 16.5 (00:00) 25.8 8.61 (19:40) 5.83 (20:50) 0 0 0 0 0
30-06-2020 37.1 (18:40) 18.1 (00:00) 27.6 9.72 (20:40) 6.94 (21:10) 0 0 0 0 0
29-06-2020 37.9 (18:30) 17.7 (00:00) 27.8 9.72 (23:59) 6.39 (23:20) 0 0 0 0 0
28-06-2020 35.4 (18:30) 16.9 (00:00) 26.2 10 (22:20) 6.39 (22:10) 0 0 0 0 0
27-06-2020 32.1 (18:10) 15.8 (00:00) 23.9 8.33 (16:50) 5.56 (20:10) 0 0 0 0 0
26-06-2020 29.8 (18:40) 12.9 (00:00) 21.3 9.17 (18:00) 6.11 (20:10) 0 0 0 0 0
25-06-2020 33 (17:50) 17.2 (00:00) 25.1 8.89 (19:50) 6.11 (21:00) 0 0 0 0 0
24-06-2020 35.5 (17:50) 19.3 (00:00) 27.4 9.44 (20:40) 7.22 (20:40) 0 0 0 0 0
23-06-2020 38.7 (16:50) 18.8 (00:00) 28.8 8.33 (21:20) 5.83 (20:50) 0 0 0 0 0
22-06-2020 39.9 (18:50) 15.7 (00:00) 27.8 9.17 (23:00) 5 (00:10) 0 0 0 0 0
21-06-2020 34.5 (18:10) 12.6 (00:00) 23.6 9.17 (23:10) 6.11 (22:20) 0 0 0 0 0
20-06-2020 33.3 (18:20) 11.9 (00:00) 22.6 10.83 (22:20) 6.67 (22:30) 0 0 0 0 0
19-06-2020 30.4 (19:10) 11.6 (00:00) 21 8.33 (00:10) 5.28 (00:10) 0 0 0 0 0
18-06-2020 29 (17:20) 10.9 (00:00) 19.9 9.17 (22:10) 6.39 (22:20) 0 0 0 0 0
17-06-2020 27.1 (17:50) 12.3 (00:00) 19.7 9.72 (16:40) 5.56 (10:50) 0 0 0 0 0
16-06-2020 28.3 (17:50) 12.7 (00:00) 20.5 10.28 (18:10) 6.67 (18:20) 0 0 0 0 0
15-06-2020 27.6 (17:50) 11.4 (00:00) 19.5 11.39 (17:40) 5.83 (19:10) 0 0 0 0 0
14-06-2020 27.1 (17:40) 11.4 (00:00) 19.3 10.56 (17:00) 5.83 (20:40) 0 0 0 0 0
13-06-2020 24.5 (20:00) 10.4 (00:00) 17.4 7.22 (14:20) 4.72 (14:20) 0 0 0 0 0
12-06-2020 22 (16:50) 13 (00:00) 17.5 12.5 (20:50) 6.94 (13:50) 0.2 0 0 0 0.2

Gráficas

Temp. máximas Temp. mínimas Temp. medias Precipitaciones Rachas de viento máximas Velocidades máximas media en intervalos de 10 minutos

Datos horarios

Fecha y hora oficial Temperatura (ºC) Velocidad del viento (km/h) Dirección del viento Racha (km/h) Dirección de racha Precipitación (mm) Presión (hPa) Tendencia (hPa) Humedad (%)
2020-07-11 23:00:00 -- -- -- -- -- -- -- -- --
2020-07-11 22:00:00 30.8 19 Noroeste 38 Oeste 0 -- -- 40
2020-07-11 21:00:00 33.7 25 Oeste 40 Oeste 0 -- -- 33
2020-07-11 20:00:00 35.7 20 Oeste 37 Oeste 0 -- -- 29
2020-07-11 19:00:00 36.9 17 Sudoeste 24 Sudoeste 0 -- -- 28
2020-07-11 18:00:00 38.3 16 Sudoeste 25 Sudoeste 0 -- -- 24
2020-07-11 17:00:00 38.3 13 Oeste 25 Oeste 0 -- -- 26
2020-07-11 16:00:00 37.6 18 Sudoeste 23 Sudoeste 0 -- -- 27
2020-07-11 15:00:00 36.9 11 Oeste 17 Oeste 0 -- -- 30
2020-07-11 14:00:00 34.6 9 Noroeste 15 Oeste 0 -- -- 34
2020-07-11 13:00:00 33 7 Noroeste 15 Oeste 0 -- -- 34
2020-07-11 12:00:00 30.8 8 Oeste 14 Sudoeste 0 -- -- 43
2020-07-11 11:00:00 28.6 5 Sudoeste 12 Sudoeste 0 -- -- 46
2020-07-11 10:00:00 26 4 Oeste 8 Oeste 0 -- -- 55
2020-07-11 09:00:00 23.4 0 Calma 5 Este 0 -- -- 59
2020-07-11 08:00:00 20.8 0 Calma 5 Sudeste 0 -- -- 67
2020-07-11 07:00:00 20.6 0 Calma -- -- 0 -- -- 69
2020-07-11 06:00:00 21.4 2 Sudeste 4 Sudeste 0 -- -- 65
2020-07-11 05:00:00 21.9 3 Sur 8 Norte 0 -- -- 64
2020-07-11 04:00:00 22.8 4 Norte 12 Nordeste 0 -- -- 60
2020-07-11 03:00:00 23.6 7 Nordeste 12 Norte 0 -- -- 56
2020-07-11 02:00:00 25.1 9 Norte 15 Norte 0 -- -- 52
2020-07-11 01:00:00 26.2 11 Norte 29 Norte 0 -- -- 51
2020-07-11 00:00:00 28.1 14 Norte 23 Norte 0 -- -- 48
2020-07-10 23:00:00 30 13 Norte 25 Norte 0 -- -- 40
2020-07-10 22:00:00 32.2 17 Noroeste 33 Noroeste 0 -- -- 31
2020-07-10 21:00:00 35.3 21 Noroeste 31 Noroeste 0 -- -- 25
2020-07-10 20:00:00 37.1 15 Noroeste 30 Noroeste 0 -- -- 22
2020-07-10 19:00:00 38 14 Noroeste 27 Norte 0 -- -- 23
2020-07-10 18:00:00 37.8 6 Oeste 20 Oeste 0 -- -- 25
2020-07-10 17:00:00 38.3 11 Oeste 22 Sudoeste 0 -- -- 23
2020-07-10 16:00:00 37.4 9 Oeste 22 Sudoeste 0 -- -- 25
2020-07-10 15:00:00 36.6 7 Noroeste 21 Noroeste 0 -- -- 26
2020-07-10 14:00:00 35.3 8 Norte 18 Oeste 0 -- -- 26
2020-07-10 13:00:00 32.3 10 Oeste 18 Oeste 0 -- -- 37
2020-07-10 12:00:00 28.8 11 Oeste 15 Oeste 0 -- -- 45
2020-07-10 11:00:00 25.6 8 Oeste 13 Oeste 0 -- -- 54
2020-07-10 10:00:00 23.7 2 Nordeste 9 Norte 0 -- -- 58
2020-07-10 09:00:00 20.3 4 Norte 7 Norte 0 -- -- 70
2020-07-10 08:00:00 17.9 3 Norte 9 Norte 0 -- -- 79
2020-07-10 07:00:00 18 4 Noroeste 9 Este 0 -- -- 77
2020-07-10 06:00:00 19.1 5 Noroeste 6 Noroeste 0 -- -- 73
2020-07-10 05:00:00 20 4 Norte 7 Norte 0 -- -- 69
2020-07-10 04:00:00 21.2 0 Calma 8 Norte 0 -- -- 66
2020-07-10 03:00:00 22 8 Norte 13 Norte 0 -- -- 63
2020-07-10 02:00:00 23.2 6 Norte 10 Norte 0 -- -- 59
2020-07-10 01:00:00 24.6 7 Norte 17 Norte 0 -- -- 55
2020-07-10 00:00:00 26 11 Noroeste 33 Noroeste 0 -- -- 54
2020-07-09 23:00:00 28.2 17 Norte 32 Noroeste 0 -- -- 50
2020-07-09 22:00:00 30.9 8 Noroeste 13 Noroeste 0 -- -- 32
2020-07-09 21:00:00 33.4 8 Sudoeste 13 Sudoeste 0 -- -- 28
2020-07-09 20:00:00 34.4 8 Sudoeste 18 Oeste 0 -- -- 24
2020-07-09 19:00:00 34.9 8 Oeste 17 Sudoeste 0 -- -- 23
2020-07-09 18:00:00 35.1 8 Oeste 19 Oeste 0 -- -- 23
2020-07-09 17:00:00 34.1 9 Oeste 17 Oeste 0 -- -- 23
2020-07-09 16:00:00 32.2 10 Oeste 18 Oeste 0 -- -- 25
2020-07-09 15:00:00 29.5 13 Sudoeste 19 Sudoeste 0 -- -- 38
2020-07-09 14:00:00 27.3 10 Sudoeste 16 Oeste 0 -- -- 46
2020-07-09 13:00:00 25.2 8 Sudoeste 14 Sur 0 -- -- 56
2020-07-09 12:00:00 21.7 6 Oeste 13 Sudoeste 0 -- -- 69
2020-07-09 11:00:00 18.9 6 Oeste 12 Oeste 0 -- -- 81
2020-07-09 10:00:00 16.8 4 Nordeste 12 Norte 0 -- -- 91
2020-07-09 09:00:00 15.8 2 Norte 8 Norte 0 -- -- 98
2020-07-09 08:00:00 14.8 0 Calma 9 Noroeste 0 -- -- 97
2020-07-09 07:00:00 15.1 7 Noroeste 9 Noroeste 0 -- -- 94
2020-07-09 06:00:00 16 3 Norte 8 Oeste 0 -- -- 91
2020-07-09 05:00:00 16.4 7 Oeste 14 Oeste 0 -- -- 90
2020-07-09 04:00:00 17 9 Oeste 16 Oeste 0 -- -- 88
2020-07-09 03:00:00 17.7 9 Oeste 15 Sudoeste 0 -- -- 84
2020-07-09 02:00:00 18.6 11 Oeste 16 Oeste 0 -- -- 80
2020-07-09 01:00:00 20 12 Oeste 21 Oeste 0 -- -- 74
2020-07-09 00:00:00 21.6 14 Oeste 25 Oeste 0 -- -- 68
2020-07-08 23:00:00 23.8 17 Oeste 27 Oeste 0 -- -- 60
2020-07-08 22:00:00 26.1 14 Oeste 26 Oeste 0 -- -- 48
2020-07-08 21:00:00 29.2 18 Oeste 29 Oeste 0 -- -- 42
2020-07-08 20:00:00 31.4 20 Oeste 30 Oeste 0 -- -- 33
2020-07-08 19:00:00 33.1 19 Oeste 31 Oeste 0 -- -- 28
2020-07-08 18:00:00 34.4 17 Oeste 32 Oeste 0 -- -- 26
2020-07-08 17:00:00 34.2 18 Oeste 29 Oeste 0 -- -- 24
2020-07-08 16:00:00 33.1 16 Sudoeste 26 Sudoeste 0 -- -- 24
2020-07-08 15:00:00 32.2 13 Oeste 23 Sudoeste 0 -- -- 28
2020-07-08 14:00:00 30.1 14 Oeste 23 Oeste 0 -- -- 39
2020-07-08 13:00:00 27 13 Sudoeste -- -- -- -- -- 47
2020-07-08 12:00:00 -- -- -- -- -- -- -- -- --
2020-07-08 11:00:00 22.8 8 Oeste 15 Oeste 0 -- -- 62
2020-07-08 10:00:00 21.1 8 Noroeste 17 Oeste 0 -- -- 68
2020-07-08 09:00:00 19.6 9 Noroeste 14 Oeste 0 -- -- 75
2020-07-08 08:00:00 18.8 9 Oeste 16 Oeste 0 -- -- 79
2020-07-08 07:00:00 19.5 8 Oeste 15 Oeste 0 -- -- 72
2020-07-08 06:00:00 21.3 5 Noroeste 9 Oeste 0 -- -- 63
2020-07-08 05:00:00 22.6 3 Oeste 13 Noroeste 0 -- -- 58
2020-07-08 04:00:00 23.6 8 Oeste 15 Oeste 0 -- -- 53
2020-07-08 03:00:00 25 9 Oeste 14 Oeste 0 -- -- 49
2020-07-08 02:00:00 26.3 9 Oeste 17 Sudoeste 0 -- -- 45
2020-07-08 01:00:00 27.9 7 Oeste 18 Oeste 0 -- -- 39
2020-07-08 00:00:00 29.4 9 Oeste 17 Oeste 0 -- -- 30
2020-07-07 23:00:00 31.1 9 Noroeste 20 Oeste 0 -- -- 31
2020-07-07 22:00:00 33.6 10 Noroeste 20 Oeste 0 -- -- 29
2020-07-07 21:00:00 37.3 13 Noroeste 24 Noroeste 0 -- -- 18
2020-07-07 20:00:00 39.8 13 Oeste 21 Oeste 0 -- -- 16
2020-07-07 19:00:00 39.9 8 Oeste 28 Oeste 0 -- -- 14
2020-07-07 18:00:00 40.3 19 Sudoeste 26 Sudoeste 0 -- -- 14
2020-07-07 17:00:00 40.1 16 Sudoeste 24 Sudoeste 0 -- -- 14
2020-07-07 16:00:00 39.7 14 Sudoeste 20 Sudoeste 0 -- -- 15
2020-07-07 15:00:00 38.5 15 Sudoeste 23 Sudoeste 0 -- -- 19
2020-07-07 14:00:00 37.1 12 Sudoeste 20 Sudoeste 0 -- -- 15
2020-07-07 13:00:00 34.5 12 Sudoeste 14 Sudoeste 0 -- -- 19
2020-07-07 12:00:00 31.7 5 Oeste 12 Noroeste 0 -- -- 33
2020-07-07 11:00:00 28.9 6 Sudoeste 10 Sudoeste 0 -- -- 41
2020-07-07 10:00:00 26.1 4 Sudoeste 6 Oeste 0 -- -- 48
2020-07-07 09:00:00 22.2 2 Noroeste 4 Norte 0 -- -- 56
2020-07-07 08:00:00 19.8 2 Norte 6 Sudeste 0 -- -- 58
2020-07-07 07:00:00 20.7 6 Sudeste 7 Sudeste 0 -- -- 54
2020-07-07 06:00:00 21.3 2 Este 4 Este 0 -- -- 54
2020-07-07 05:00:00 22.6 3 Sudeste 7 Sudeste 0 -- -- 49
2020-07-07 04:00:00 23.5 4 Sudeste 11 Sudeste 0 -- -- 47
2020-07-07 03:00:00 25 8 Sudeste 9 Sur 0 -- -- 43
2020-07-07 02:00:00 26.7 0 Calma 8 Sur 0 -- -- 40
2020-07-07 01:00:00 28 9 Sur 11 Sur 0 -- -- 40
2020-07-07 00:00:00 30.1 10 Norte 22 Norte 0 -- -- 31
2020-07-06 23:00:00 31.5 12 Noroeste 20 Noroeste 0 -- -- 32
2020-07-06 22:00:00 34.1 14 Noroeste 37 Noroeste 0 -- -- 28
2020-07-06 21:00:00 37.5 23 Noroeste 38 Noroeste 0 -- -- 21
2020-07-06 20:00:00 40.8 10 Oeste 22 Oeste 0 -- -- 17
2020-07-06 19:00:00 40.7 14 Sudoeste 26 Sudoeste 0 -- -- 15
2020-07-06 18:00:00 41 12 Sudoeste 19 Sudoeste 0 -- -- 15
2020-07-06 17:00:00 40.8 12 Sudoeste 19 Sudoeste 0 -- -- 15
2020-07-06 16:00:00 40.7 11 Sudoeste 24 Sudoeste 0 -- -- 15
2020-07-06 15:00:00 40.2 13 Sudoeste 19 Oeste 0 -- -- 15
2020-07-06 14:00:00 39 9 Oeste 18 Oeste 0 -- -- 20
2020-07-06 13:00:00 36 8 Oeste 14 Oeste 0 -- -- 28
2020-07-06 12:00:00 32.3 8 Oeste 13 Oeste 0 -- -- 35
2020-07-06 11:00:00 30 5 Sudeste 10 Sur 0 -- -- 40
2020-07-06 10:00:00 26 3 Sudoeste 8 Oeste 0 -- -- 49
2020-07-06 09:00:00 23 5 Sudeste 8 Sudeste 0 -- -- 56
2020-07-06 08:00:00 20.7 5 Este 7 Sudeste 0 -- -- 61
2020-07-06 07:00:00 19.5 5 Sudeste 9 Este 0 -- -- 65
2020-07-06 06:00:00 20.5 7 Este 10 Este 0 -- -- 60
2020-07-06 05:00:00 21.8 6 Sudeste 10 Sur 0 -- -- 57
2020-07-06 04:00:00 22.6 9 Sudeste 13 Sudeste 0 -- -- 55
2020-07-06 03:00:00 23.9 10 Sudeste 13 Sudeste 0 -- -- 53
2020-07-06 02:00:00 25.7 6 Sudeste 11 Sudeste 0 -- -- 47
2020-07-06 01:00:00 27.3 5 Sur 14 Sur 0 -- -- 43
2020-07-06 00:00:00 29.6 5 Oeste 23 Noroeste 0 -- -- 34
2020-07-05 23:00:00 32.2 19 Norte 34 Noroeste 0 -- -- 30
2020-07-05 22:00:00 34.2 10 Oeste 31 Oeste 0 -- -- 32
2020-07-05 21:00:00 37.4 7 Oeste 16 Sudoeste 0 -- -- 19
2020-07-05 20:00:00 38.5 13 Oeste 19 Oeste 0 -- -- 18
2020-07-05 19:00:00 39.6 13 Oeste 18 Oeste 0 -- -- 18
2020-07-05 18:00:00 40.2 12 Noroeste 21 Noroeste 0 -- -- 15
2020-07-05 17:00:00 39.5 15 Oeste 24 Oeste 0 -- -- 15
2020-07-05 16:00:00 38.9 10 Oeste 15 Oeste 0 -- -- 16
2020-07-05 15:00:00 37.6 9 Oeste 16 Sudoeste 0 -- -- 20
2020-07-05 14:00:00 35.6 10 Sudoeste 17 Sudoeste 0 -- -- 24
2020-07-05 13:00:00 33.1 11 Sudoeste 16 Sudoeste 0 -- -- 28
2020-07-05 12:00:00 31.2 9 Oeste 14 Oeste 0 -- -- 32
2020-07-05 11:00:00 28.7 5 Sudoeste 9 Sudoeste 0 -- -- 40
2020-07-05 10:00:00 24.8 5 Sur 10 Sur 0 -- -- 50
2020-07-05 09:00:00 22.4 0 Calma 4 Nordeste 0 -- -- 59
2020-07-05 08:00:00 20.2 2 Este 7 Nordeste 0 -- -- 61
2020-07-05 07:00:00 19.4 5 Nordeste 7 Este 0 -- -- 63
2020-07-05 06:00:00 19.4 4 Sudeste 8 Sudeste 0 -- -- 64
2020-07-05 05:00:00 20.3 3 Noroeste 14 Nordeste 0 -- -- 60
2020-07-05 04:00:00 21.8 5 Este 9 Este 0 -- -- 55
2020-07-05 03:00:00 23.1 5 Este 8 Este 0 -- -- 52
2020-07-05 02:00:00 24 4 Norte 9 Norte 0 -- -- 49
2020-07-05 01:00:00 26.1 7 Norte 23 Norte 0 -- -- 42
2020-07-05 00:00:00 27.9 15 Norte 29 Norte 0 -- -- 38
2020-07-04 23:00:00 30.2 19 Norte 32 Norte 0 -- -- 32
2020-07-04 22:00:00 32.3 12 Nordeste 16 Nordeste 0 -- -- 20
2020-07-04 21:00:00 36.2 10 Norte 17 Norte 0 -- -- 16
2020-07-04 20:00:00 37.5 10 Norte 19 Nordeste 0 -- -- 14
2020-07-04 19:00:00 38.1 12 Noroeste 23 Oeste 0 -- -- 14
2020-07-04 18:00:00 37.8 13 Noroeste 28 Noroeste 0 -- -- 13
2020-07-04 17:00:00 37.8 12 Noroeste 23 Noroeste 0 -- -- 15
2020-07-04 16:00:00 36.6 13 Norte 38 Noroeste 0 -- -- 17
2020-07-04 15:00:00 36.3 14 Noroeste 25 Norte 0 -- -- 17
2020-07-04 14:00:00 35.1 10 Norte 24 Nordeste 0 -- -- 21
2020-07-04 13:00:00 31.6 10 Oeste 18 Sudoeste 0 -- -- 32
2020-07-04 12:00:00 28.5 10 Sudoeste 15 Oeste 0 -- -- 40
2020-07-04 11:00:00 25.5 6 Norte 15 Noroeste 0 -- -- 44
2020-07-04 10:00:00 21.6 7 Nordeste 12 Nordeste 0 -- -- 57
2020-07-04 09:00:00 18.6 3 Norte 6 Norte 0 -- -- 66
2020-07-04 08:00:00 15.6 3 Este 6 Este 0 -- -- 72
2020-07-04 07:00:00 14.8 4 Este 5 Este 0 -- -- 76
2020-07-04 06:00:00 15.6 0 Calma 5 Norte 0 -- -- 73
2020-07-04 05:00:00 16 5 Norte 12 Norte 0 -- -- 71
2020-07-04 04:00:00 16.9 7 Nordeste 9 Norte 0 -- -- 69
2020-07-04 03:00:00 18.5 5 Norte 13 Norte 0 -- -- 64
2020-07-04 02:00:00 20.3 11 Norte 30 Norte 0 -- -- 58
2020-07-04 01:00:00 21.7 18 Norte 28 Norte 0 -- -- 55
2020-07-04 00:00:00 23.6 20 Norte 36 Norte 0 -- -- 51
2020-07-03 23:00:00 25.6 15 Norte 22 Norte 0 -- -- 37
2020-07-03 22:00:00 28 14 Norte 28 Noroeste 0 -- -- 30
2020-07-03 21:00:00 31.3 17 Noroeste 26 Norte 0 -- -- 26
2020-07-03 20:00:00 33.3 11 Noroeste 21 Norte 0 -- -- 21
2020-07-03 19:00:00 33.6 12 Norte 21 Noroeste 0 -- -- 22
2020-07-03 18:00:00 33.4 9 Norte 17 Noroeste 0 -- -- 21
2020-07-03 17:00:00 33.3 9 Oeste 19 Norte 0 -- -- 19
2020-07-03 16:00:00 31.6 10 Noroeste 22 Norte 0 -- -- 23
2020-07-03 15:00:00 30.5 9 Norte 28 Nordeste 0 -- -- 28
2020-07-03 14:00:00 28.3 12 Norte 22 Norte 0 -- -- 34
2020-07-03 13:00:00 26.2 7 Nordeste 18 Norte 0 -- -- 39
2020-07-03 12:00:00 23.6 8 Norte 15 Norte 0 -- -- 45
2020-07-03 11:00:00 20.5 5 Nordeste 10 Nordeste 0 -- -- 53
2020-07-03 10:00:00 17.4 6 Norte 14 Norte 0 -- -- 63
2020-07-03 09:00:00 15.1 6 Norte 12 Norte 0 -- -- 72
2020-07-03 08:00:00 12.8 0 Calma 6 Norte 0 -- -- 77
2020-07-03 07:00:00 11.6 4 Norte 6 Noroeste 0 -- -- 81
2020-07-03 06:00:00 12.4 4 Norte 10 Noroeste 0 -- -- 77
2020-07-03 05:00:00 12.5 6 Norte 10 Noroeste 0 -- -- 76
2020-07-03 04:00:00 13.1 6 Norte 12 Noroeste 0 -- -- 72
2020-07-03 03:00:00 14.2 7 Norte 11 Noroeste 0 -- -- 69
2020-07-03 02:00:00 15.2 8 Norte 13 Noroeste 0 -- -- 66
2020-07-03 01:00:00 17.3 4 Noroeste 15 Norte 0 -- -- 58
2020-07-03 00:00:00 19 9 Norte 27 Norte 0 -- -- 52
2020-07-02 23:00:00 21.6 17 Norte 30 Noroeste 0 -- -- 45
2020-07-02 22:00:00 23.7 19 Noroeste 32 Noroeste 0 -- -- 39
2020-07-02 21:00:00 27 19 Noroeste 37 Noroeste 0 -- -- 35
2020-07-02 20:00:00 29.2 20 Noroeste 37 Noroeste 0 -- -- 34
2020-07-02 19:00:00 30 22 Noroeste 39 Noroeste 0 -- -- 31
2020-07-02 18:00:00 30.6 19 Noroeste 35 Noroeste 0 -- -- 30
2020-07-02 17:00:00 30.9 15 Noroeste 35 Noroeste 0 -- -- 31
2020-07-02 16:00:00 30.8 17 Noroeste 34 Noroeste 0 -- -- 35
2020-07-02 15:00:00 30.2 18 Noroeste 31 Norte 0 -- -- 37
2020-07-02 14:00:00 29.7 14 Norte 31 Noroeste 0 -- -- 38
2020-07-02 13:00:00 28.2 14 Noroeste 28 Noroeste 0 -- -- 42
2020-07-02 12:00:00 26.2 12 Noroeste 25 Oeste 0 -- -- 47
2020-07-02 11:00:00 23.5 10 Noroeste 19 Noroeste 0 -- -- 56
2020-07-02 10:00:00 20.6 8 Noroeste 13 Noroeste 0 -- -- 66
2020-07-02 09:00:00 18.1 9 Noroeste 13 Noroeste 0 -- -- 78
2020-07-02 08:00:00 16.5 4 Noroeste 9 Noroeste 0 -- -- 86
2020-07-02 07:00:00 15.9 5 Norte 8 Noroeste 0 -- -- 89
2020-07-02 06:00:00 16.6 5 Nordeste 7 Nordeste 0 -- -- 87
2020-07-02 05:00:00 17.1 6 Nordeste 8 Norte 0 -- -- 85
2020-07-02 04:00:00 18.5 3 Nordeste 14 Norte 0 -- -- 80
2020-07-02 03:00:00 19.5 8 Noroeste 16 Noroeste 0 -- -- 76
2020-07-02 02:00:00 20.7 9 Norte 20 Norte 0 -- -- 70
2020-07-02 01:00:00 22.7 11 Norte 23 Noroeste 0 -- -- 62
2020-07-02 00:00:00 24.6 13 Noroeste 25 Norte 0 -- -- 56
2020-07-01 23:00:00 26.3 15 Norte 25 Noroeste 0 -- -- 50
2020-07-01 22:00:00 28.4 14 Norte 27 Norte 0 -- -- 42
2020-07-01 21:00:00 31.4 19 Noroeste 30 Noroeste 0 -- -- 35
2020-07-01 20:00:00 33.2 17 Noroeste 31 Noroeste 0 -- -- 32
2020-07-01 19:00:00 34.6 15 Noroeste 28 Noroeste 0 -- -- 26
2020-07-01 18:00:00 34.9 15 Oeste 25 Oeste 0 -- -- 27
2020-07-01 17:00:00 34.7 13 Oeste 26 Oeste 0 -- -- 29
2020-07-01 16:00:00 33 8 Oeste 17 Oeste 0 -- -- 35
2020-07-01 15:00:00 30.5 8 Oeste 17 Sudoeste 0 -- -- 43
2020-07-01 14:00:00 28.1 7 Oeste 16 Oeste 0 -- -- 51
2020-07-01 13:00:00 25.5 7 Sudoeste 17 Sudoeste 0 -- -- 58
2020-07-01 12:00:00 24 8 Sudoeste 16 Sudoeste 0 -- -- 62
2020-07-01 11:00:00 22.6 9 Oeste 14 Oeste 0 -- -- 68
2020-07-01 10:00:00 20.5 6 Norte 13 Noroeste 0 -- -- 75
2020-07-01 09:00:00 19.2 8 Noroeste 15 Noroeste 0 -- -- 81
2020-07-01 08:00:00 17.3 4 Noroeste 11 Oeste 0 -- -- 88
2020-07-01 07:00:00 16.7 6 Noroeste 10 Noroeste 0 -- -- 88
2020-07-01 06:00:00 17.2 6 Noroeste 12 Noroeste 0 -- -- 86
2020-07-01 05:00:00 17.7 6 Noroeste 9 Noroeste 0 -- -- 85
2020-07-01 04:00:00 18.5 4 Noroeste 16 Norte 0 -- -- 82
2020-07-01 03:00:00 19.9 6 Noroeste 13 Noroeste 0 -- -- 77
2020-07-01 02:00:00 21.7 8 Noroeste 14 Oeste 0 -- -- 70
2020-07-01 01:00:00 23.3 7 Noroeste 23 Noroeste 0 -- -- 65
2020-07-01 00:00:00 25.2 14 Noroeste 25 Noroeste 0 -- -- 57
2020-06-30 23:00:00 27.5 11 Noroeste 23 Noroeste 0 -- -- 49
2020-06-30 22:00:00 30.6 15 Oeste 34 Oeste 0 -- -- 36
2020-06-30 21:00:00 33.1 23 Oeste 35 Noroeste 0 -- -- 30
2020-06-30 20:00:00 35.2 22 Noroeste 32 Oeste 0 -- -- 29
2020-06-30 19:00:00 36.9 13 Oeste 28 Oeste 0 -- -- 23
2020-06-30 18:00:00 36.4 16 Oeste 30 Oeste 0 -- -- 25
2020-06-30 17:00:00 36.4 18 Sudoeste 32 Sudoeste 0 -- -- 26
2020-06-30 16:00:00 35.5 21 Sudoeste 28 Sudoeste 0 -- -- 27
2020-06-30 15:00:00 34.8 20 Sudoeste 26 Sudoeste 0 -- -- 29
2020-06-30 14:00:00 33.2 16 Sudoeste 21 Sudoeste 0 -- -- 34
2020-06-30 13:00:00 31.2 14 Sudoeste 21 Sur 0 -- -- 37
2020-06-30 12:00:00 28.9 14 Sudoeste 23 Sudoeste 0 -- -- 44
2020-06-30 11:00:00 26.1 11 Sudoeste 18 Oeste 0 -- -- 53
2020-06-30 10:00:00 24 5 Sudoeste 14 Noroeste 0 -- -- 61
2020-06-30 09:00:00 22 0 Calma 4 Sur 0 -- -- 65
2020-06-30 08:00:00 19.2 3 Este 8 Este 0 -- -- 76
2020-06-30 07:00:00 18.6 4 Nordeste 9 Sudoeste 0 -- -- 77
2020-06-30 06:00:00 20 7 Sur 10 Sur 0 -- -- 74
2020-06-30 05:00:00 20.6 0 Calma 6 Noroeste 0 -- -- 69
2020-06-30 04:00:00 21.7 3 Noroeste 6 Noroeste 0 -- -- 65
2020-06-30 03:00:00 22.3 3 Norte 11 Norte 0 -- -- 61
2020-06-30 02:00:00 23.3 8 Norte 21 Noroeste 0 -- -- 59
2020-06-30 01:00:00 25 11 Norte 26 Norte 0 -- -- 57
2020-06-30 00:00:00 27 21 Norte 35 Norte 0 -- -- 52
2020-06-29 23:00:00 29.2 21 Norte 34 Norte 0 -- -- 45
2020-06-29 22:00:00 31.5 18 Norte 28 Norte 0 -- -- 36
2020-06-29 21:00:00 35.6 14 Noroeste 27 Noroeste 0 -- -- 29
2020-06-29 20:00:00 37.3 9 Oeste 20 Oeste 0 -- -- 26
2020-06-29 19:00:00 37.6 7 Sudoeste 15 Oeste 0 -- -- 25
2020-06-29 18:00:00 37.8 7 Oeste 17 Sudoeste 0 -- -- 20
2020-06-29 17:00:00 37 9 Sudoeste 18 Sudoeste 0 -- -- 26
2020-06-29 16:00:00 36.7 12 Sudoeste 20 Oeste 0 -- -- 27
2020-06-29 15:00:00 35.7 7 Noroeste 21 Oeste 0 -- -- 30
2020-06-29 14:00:00 33.7 14 Oeste 20 Oeste 0 -- -- 37
2020-06-29 13:00:00 32.6 9 Norte 17 Norte 0 -- -- 40
2020-06-29 12:00:00 30.4 7 Nordeste 16 Este 0 -- -- 44
2020-06-29 11:00:00 26.6 7 Norte 14 Nordeste 0 -- -- 56
2020-06-29 10:00:00 23.7 6 Norte 12 Norte 0 -- -- 67
2020-06-29 09:00:00 20.3 4 Noroeste 7 Norte 0 -- -- 81
2020-06-29 08:00:00 18.4 3 Noroeste 4 Norte 0 -- -- 86
2020-06-29 07:00:00 17.9 0 Calma 9 Norte 0 -- -- 88
2020-06-29 06:00:00 18.1 6 Norte 9 Norte 0 -- -- 87
2020-06-29 05:00:00 19 3 Norte 9 Norte 0 -- -- 84
2020-06-29 04:00:00 19.7 6 Norte 12 Norte 0 -- -- 81
2020-06-29 03:00:00 21 10 Norte 15 Norte 0 -- -- 76
2020-06-29 02:00:00 22.2 9 Norte 20 Norte 0 -- -- 71
2020-06-29 01:00:00 23.7 13 Norte 20 Norte 0 -- -- 66
2020-06-29 00:00:00 25.1 9 Norte 27 Norte 0 -- -- 58
2020-06-28 23:00:00 26.8 18 Norte 36 Norte 0 -- -- 53
2020-06-28 22:00:00 29.7 15 Norte 29 Norte 0 -- -- 44
2020-06-28 21:00:00 33.2 15 Noroeste 27 Noroeste 0 -- -- 33
2020-06-28 20:00:00 34.1 17 Norte 31 Noroeste 0 -- -- 31
2020-06-28 19:00:00 35.4 12 Noroeste 32 Noroeste 0 -- -- 30
2020-06-28 18:00:00 35.1 12 Noroeste 31 Norte 0 -- -- 30
2020-06-28 17:00:00 35.1 10 Norte 22 Norte 0 -- -- 30
2020-06-28 16:00:00 34.2 10 Norte 26 Noroeste 0 -- -- 31
2020-06-28 15:00:00 33.2 8 Nordeste 21 Nordeste 0 -- -- 31
2020-06-28 14:00:00 31.4 10 Nordeste 22 Norte 0 -- -- 36
2020-06-28 13:00:00 30 12 Nordeste 23 Nordeste 0 -- -- 41
2020-06-28 12:00:00 27.7 12 Nordeste 21 Norte 0 -- -- 48
2020-06-28 11:00:00 24.9 5 Nordeste 16 Nordeste 0 -- -- 60
2020-06-28 10:00:00 21.8 9 Norte 15 Noroeste 0 -- -- 74
2020-06-28 09:00:00 19.8 6 Norte 14 Norte 0 -- -- 82
2020-06-28 08:00:00 17.6 5 Norte 9 Norte 0 -- -- 91
2020-06-28 07:00:00 16.9 6 Norte 10 Norte 0 -- -- 92
2020-06-28 06:00:00 17.5 5 Norte 10 Norte 0 -- -- 90
2020-06-28 05:00:00 18.4 7 Norte 19 Norte 0 -- -- 87
2020-06-28 04:00:00 19.1 11 Norte 19 Norte 0 -- -- 85
2020-06-28 03:00:00 20 4 Norte 12 Norte 0 -- -- 80
2020-06-28 02:00:00 20.8 6 Norte 12 Norte 0 -- -- 74
2020-06-28 01:00:00 22 8 Norte 15 Norte 0 -- -- 68
2020-06-28 00:00:00 23.3 10 Norte 24 Norte 0 -- -- 61
2020-06-27 23:00:00 24.6 14 Norte 27 Norte 0 -- -- 56
2020-06-27 22:00:00 26.5 18 Norte 29 Noroeste 0 -- -- 50
2020-06-27 21:00:00 28.8 17 Norte 29 Noroeste 0 -- -- 43
2020-06-27 20:00:00 30.4 15 Noroeste 27 Noroeste 0 -- -- 40
2020-06-27 19:00:00 31.6 13 Noroeste 24 Noroeste 0 -- -- 37
2020-06-27 18:00:00 31.9 10 Noroeste 27 Noroeste 0 -- -- 37
2020-06-27 17:00:00 31.2 13 Norte 30 Norte 0 -- -- 38
2020-06-27 16:00:00 30.6 13 Noroeste 26 Noroeste 0 -- -- 39
2020-06-27 15:00:00 29.1 8 Noroeste 22 Noroeste 0 -- -- 42
2020-06-27 14:00:00 27.3 12 Oeste 23 Oeste 0 -- -- 49
2020-06-27 13:00:00 25.3 10 Oeste 19 Oeste 0 -- -- 55
2020-06-27 12:00:00 23.1 12 Oeste 24 Oeste 0 -- -- 63
2020-06-27 11:00:00 20.7 5 Noroeste 14 Noroeste 0 -- -- 73
2020-06-27 10:00:00 19.5 8 Norte 15 Norte 0 -- -- 78
2020-06-27 09:00:00 18.7 8 Norte 17 Noroeste 0 -- -- 81
2020-06-27 08:00:00 17.9 12 Norte 18 Norte 0 -- -- 84
2020-06-27 07:00:00 17.3 8 Noroeste 14 Norte 0 -- -- 86
2020-06-27 06:00:00 15.8 8 Norte 12 Noroeste 0 -- -- 91
2020-06-27 05:00:00 16.5 6 Noroeste 11 Noroeste 0 -- -- 87
2020-06-27 04:00:00 17.1 6 Noroeste 10 Noroeste 0 -- -- 84
2020-06-27 03:00:00 17.8 5 Noroeste 12 Noroeste 0 -- -- 79
2020-06-27 02:00:00 18.6 9 Noroeste 24 Noroeste 0 -- -- 76
2020-06-27 01:00:00 19.7 14 Noroeste 24 Noroeste 0 -- -- 70
2020-06-27 00:00:00 20.6 14 Noroeste 22 Noroeste 0 -- -- 56
2020-06-26 23:00:00 21.9 15 Noroeste 31 Noroeste 0 -- -- 49
2020-06-26 22:00:00 24.1 21 Noroeste 31 Noroeste 0 -- -- 45
2020-06-26 21:00:00 26.7 18 Noroeste 32 Noroeste 0 -- -- 38
2020-06-26 20:00:00 27.5 17 Noroeste 30 Noroeste 0 -- -- 35
2020-06-26 19:00:00 29.5 16 Noroeste 31 Oeste 0 -- -- 29
2020-06-26 18:00:00 29.2 14 Noroeste 33 Noroeste 0 -- -- 28
2020-06-26 17:00:00 29 15 Oeste 29 Noroeste 0 -- -- 33
2020-06-26 16:00:00 27.5 15 Noroeste 29 Oeste 0 -- -- 37
2020-06-26 15:00:00 26.1 17 Oeste 31 Oeste 0 -- -- 43
2020-06-26 14:00:00 26.6 13 Oeste 26 Oeste 0 -- -- 43
2020-06-26 13:00:00 24.7 13 Noroeste 27 Oeste 0 -- -- 48
2020-06-26 12:00:00 22.5 8 Oeste 19 Oeste 0 -- -- 57
2020-06-26 11:00:00 20.1 7 Oeste 19 Oeste 0 -- -- 65
2020-06-26 10:00:00 18.4 6 Norte 15 Noroeste 0 -- -- 70
2020-06-26 09:00:00 15.7 6 Norte 11 Noroeste 0 -- -- 83
2020-06-26 08:00:00 14.1 3 Norte 6 Noroeste 0 -- -- 91
2020-06-26 07:00:00 12.9 4 Norte 9 Norte 0 -- -- 93
2020-06-26 06:00:00 13.2 7 Norte 9 Noroeste 0 -- -- 91
2020-06-26 05:00:00 13.7 4 Noroeste 9 Noroeste 0 -- -- 89
2020-06-26 04:00:00 14.4 7 Noroeste 12 Noroeste 0 -- -- 85
2020-06-26 03:00:00 15.7 9 Noroeste 18 Noroeste 0 -- -- 81
2020-06-26 02:00:00 17.6 11 Noroeste 17 Noroeste 0 -- -- 76
2020-06-26 01:00:00 18.9 12 Noroeste 27 Norte 0 -- -- 70
2020-06-26 00:00:00 21.1 15 Noroeste 30 Norte 0 -- -- 65
2020-06-25 23:00:00 23.8 17 Noroeste 27 Noroeste 0 -- -- 50
2020-06-25 22:00:00 26.3 18 Noroeste 31 Noroeste 0 -- -- 41
2020-06-25 21:00:00 29.1 22 Noroeste 30 Noroeste 0 -- -- 37
2020-06-25 20:00:00 31.2 18 Noroeste 32 Noroeste 0 -- -- 34
2020-06-25 19:00:00 32.6 16 Oeste 27 Oeste 0 -- -- 28
2020-06-25 18:00:00 33 14 Oeste 29 Oeste 0 -- -- 27
2020-06-25 17:00:00 32.2 18 Sudoeste 29 Oeste 0 -- -- 35
2020-06-25 16:00:00 31.3 16 Sudoeste 23 Sudoeste 0 -- -- 39
2020-06-25 15:00:00 29.8 14 Sudoeste 23 Sudoeste 0 -- -- 43
2020-06-25 14:00:00 28.5 13 Sudoeste 24 Sudoeste 0 -- -- 47
2020-06-25 13:00:00 27.1 19 Oeste 29 Sudoeste 0 -- -- 51
2020-06-25 12:00:00 25.7 17 Oeste 25 Sudoeste 0 -- -- 55
2020-06-25 11:00:00 23.9 13 Oeste 18 Oeste 0 -- -- 60
2020-06-25 10:00:00 21.7 6 Oeste 10 Oeste 0 -- -- 68
2020-06-25 09:00:00 20.1 0 Calma 8 Nordeste 0 -- -- 72
2020-06-25 08:00:00 17.8 5 Nordeste 10 Norte 0 -- -- 84
2020-06-25 07:00:00 17.8 0 Calma 5 Sudeste 0 -- -- 81
2020-06-25 06:00:00 18.4 0 Calma 7 Norte 0 -- -- 78
2020-06-25 05:00:00 19.2 6 Norte 11 Sudoeste 0 -- -- 75
2020-06-25 04:00:00 20.8 6 Sudoeste 9 Sudoeste 0 -- -- 74
2020-06-25 03:00:00 21.3 4 Noroeste 8 Norte 0 -- -- 68
2020-06-25 02:00:00 22.7 5 Nordeste 10 Nordeste 0 -- -- 59
2020-06-25 01:00:00 24.3 6 Norte 13 Nordeste 0 -- -- 55
2020-06-25 00:00:00 26.4 8 Este 20 Norte 0 -- -- 50
2020-06-24 23:00:00 27.7 13 Norte 23 Norte 0 -- -- 48
2020-06-24 22:00:00 29.5 10 Oeste 33 Sudoeste 0 -- -- 43
2020-06-24 21:00:00 32.1 24 Sudoeste 34 Sudoeste 0 -- -- 33
2020-06-24 20:00:00 34.2 22 Sudoeste 31 Sudoeste 0 -- -- 32
2020-06-24 19:00:00 35.3 13 Sudoeste 22 Sudoeste 0 -- -- 28
2020-06-24 18:00:00 35.3 11 Sudoeste 19 Oeste 0 -- -- 28
2020-06-24 17:00:00 35.3 12 Oeste 19 Sudoeste 0 -- -- 26
2020-06-24 16:00:00 34.3 11 Sudoeste 17 Oeste 0 -- -- 31
2020-06-24 15:00:00 32.8 11 Sudoeste 17 Sudoeste 0 -- -- 36
2020-06-24 14:00:00 31 9 Sudoeste 18 Oeste 0 -- -- 40
2020-06-24 13:00:00 29.7 9 Sudoeste 18 Sur 0 -- -- 41
2020-06-24 12:00:00 27.6 12 Sudoeste 22 Sudoeste 0 -- -- 46
2020-06-24 11:00:00 25.7 6 Oeste 10 Oeste 0 -- -- 54
2020-06-24 10:00:00 23.6 4 Oeste 7 Oeste 0 -- -- 66
2020-06-24 09:00:00 21.1 0 Calma 5 Oeste 0 -- -- 76
2020-06-24 08:00:00 19.3 0 Calma 9 Sudoeste 0 -- -- 83
2020-06-24 07:00:00 19.6 5 Oeste 9 Oeste 0 -- -- 84
2020-06-24 06:00:00 20.1 3 Oeste 10 Oeste 0 -- -- 79
2020-06-24 05:00:00 20.9 4 Noroeste 19 Noroeste 0 -- -- 75
2020-06-24 04:00:00 21.8 7 Noroeste 21 Oeste 0 -- -- 71
2020-06-24 03:00:00 23.2 12 Oeste 31 Oeste 0 -- -- 66
2020-06-24 02:00:00 24.3 17 Sudoeste 23 Sudoeste 0 -- -- 62
2020-06-24 01:00:00 26.4 7 Sudoeste 17 Oeste 0 -- -- 55
2020-06-24 00:00:00 28 8 Oeste 17 Oeste 0 -- -- 54
2020-06-23 23:00:00 29.6 10 Noroeste 28 Noroeste 0 -- -- 48
2020-06-23 22:00:00 31.8 10 Oeste 30 Sudoeste 0 -- -- 41
2020-06-23 21:00:00 33.8 19 Sudoeste 29 Sudoeste 0 -- -- 32
2020-06-23 20:00:00 36.2 12 Oeste 23 Sudoeste 0 -- -- 26
2020-06-23 19:00:00 37.4 10 Oeste 23 Sudoeste 0 -- -- 24
2020-06-23 18:00:00 38.1 17 Sudoeste 22 Sudoeste 0 -- -- 22
2020-06-23 17:00:00 38.2 13 Sudoeste 17 Oeste 0 -- -- 24
2020-06-23 16:00:00 37.8 11 Sudoeste 18 Sudoeste 0 -- -- 21
2020-06-23 15:00:00 36.2 10 Sudoeste 19 Oeste 0 -- -- 29
2020-06-23 14:00:00 34.8 15 Sudoeste 22 Sudoeste 0 -- -- 31
2020-06-23 13:00:00 32.5 14 Sudoeste 19 Sudoeste 0 -- -- 38
2020-06-23 12:00:00 31.2 8 Oeste 12 Oeste 0 -- -- 41
2020-06-23 11:00:00 28.5 5 Oeste 10 Oeste 0 -- -- 48
2020-06-23 10:00:00 25.4 4 Noroeste 8 Sur 0 -- -- 58
2020-06-23 09:00:00 23 5 Sur 8 Este 0 -- -- 63
2020-06-23 08:00:00 20.3 4 Sudeste 10 Sudeste 0 -- -- 71
2020-06-23 07:00:00 19.3 8 Sudeste 10 Sudeste 0 -- -- 73
2020-06-23 06:00:00 20.2 6 Este 11 Sudeste 0 -- -- 70
2020-06-23 05:00:00 21.5 0 Calma 3 Noroeste 0 -- -- 69
2020-06-23 04:00:00 22 3 Sudeste 9 Noroeste 0 -- -- 64
2020-06-23 03:00:00 23.6 2 Noroeste 10 Norte 0 -- -- 60
2020-06-23 02:00:00 25.3 9 Norte 12 Norte 0 -- -- 57
2020-06-23 01:00:00 27 4 Norte 17 Norte 0 -- -- 51
2020-06-23 00:00:00 28.7 3 Sur 25 Norte 0 -- -- 44
2020-06-22 23:00:00 30.4 16 Norte 33 Norte 0 -- -- 32
2020-06-22 22:00:00 32.1 9 Nordeste 16 Norte 0 -- -- 26
2020-06-22 21:00:00 37.5 5 Norte 16 Noroeste 0 -- -- 19
2020-06-22 20:00:00 39 8 Noroeste 17 Norte 0 -- -- 17
2020-06-22 19:00:00 39.7 8 Oeste 16 Noroeste 0 -- -- 16
2020-06-22 18:00:00 39.3 6 Norte 21 Noroeste 0 -- -- 17
2020-06-22 17:00:00 39.1 9 Norte 19 Oeste 0 -- -- 18
2020-06-22 16:00:00 38.4 12 Noroeste 23 Noroeste 0 -- -- 19
2020-06-22 15:00:00 37.3 13 Oeste 21 Oeste 0 -- -- 20
2020-06-22 14:00:00 36.5 14 Oeste 22 Oeste 0 -- -- 22
2020-06-22 13:00:00 34.8 11 Nordeste 26 Norte 0 -- -- 28
2020-06-22 12:00:00 31.7 12 Nordeste 21 Norte 0 -- -- 38
2020-06-22 11:00:00 28.4 9 Nordeste 19 Nordeste 0 -- -- 48
2020-06-22 10:00:00 24 10 Nordeste 16 Nordeste 0 -- -- 62
2020-06-22 09:00:00 19.5 6 Norte 9 Norte 0 -- -- 78
2020-06-22 08:00:00 17 0 Calma 4 Nordeste 0 -- -- 87
2020-06-22 07:00:00 15.9 0 Calma 8 Nordeste 0 -- -- 90
2020-06-22 06:00:00 16.5 0 Calma 5 Nordeste 0 -- -- 89
2020-06-22 05:00:00 16.8 5 Nordeste 9 Nordeste 0 -- -- 87
2020-06-22 04:00:00 17.2 8 Nordeste 10 Nordeste 0 -- -- 84
2020-06-22 03:00:00 18.6 9 Norte 15 Norte 0 -- -- 78
2020-06-22 02:00:00 20.2 10 Norte 22 Norte 0 -- -- 72
2020-06-22 01:00:00 22 15 Norte 28 Norte 0 -- -- 67
2020-06-22 00:00:00 23.9 18 Norte 33 Norte 0 -- -- 60
2020-06-21 23:00:00 25.7 21 Norte 33 Norte 0 -- -- 54
2020-06-21 22:00:00 28.6 14 Norte 27 Norte 0 -- -- 37
2020-06-21 21:00:00 31.6 18 Noroeste 27 Noroeste 0 -- -- 31
2020-06-21 20:00:00 33.2 17 Noroeste 29 Noroeste 0 -- -- 28
2020-06-21 19:00:00 34.2 13 Noroeste 31 Noroeste 0 -- -- 25
2020-06-21 18:00:00 34.4 12 Noroeste 24 Noroeste 0 -- -- 23
2020-06-21 17:00:00 34.3 10 Norte 33 Nordeste 0 -- -- 22
2020-06-21 16:00:00 33 12 Nordeste 30 Nordeste 0 -- -- 24
2020-06-21 15:00:00 32 9 Nordeste 23 Nordeste 0 -- -- 26
2020-06-21 14:00:00 30.1 11 Norte 26 Norte 0 -- -- 32
2020-06-21 13:00:00 27.8 12 Norte 22 Nordeste 0 -- -- 38
2020-06-21 12:00:00 24.8 9 Norte 19 Nordeste 0 -- -- 48
2020-06-21 11:00:00 21.6 9 Norte 15 Norte 0 -- -- 57
2020-06-21 10:00:00 18.4 5 Oeste 9 Noroeste 0 -- -- 70
2020-06-21 09:00:00 15.9 0 Calma 4 Sur 0 -- -- 80
2020-06-21 08:00:00 13.9 2 Sudeste 8 Este 0 -- -- 86
2020-06-21 07:00:00 12.7 4 Norte 8 Noroeste 0 -- -- 91
2020-06-21 06:00:00 13.6 4 Norte 10 Norte 0 -- -- 88
2020-06-21 05:00:00 14.1 9 Norte 13 Norte 0 -- -- 86
2020-06-21 04:00:00 15.6 4 Norte 6 Noroeste 0 -- -- 80
2020-06-21 03:00:00 17.1 4 Noroeste 6 Noroeste 0 -- -- 72
2020-06-21 02:00:00 18 3 Norte 14 Norte 0 -- -- 69
2020-06-21 01:00:00 19.8 10 Norte 16 Norte 0 -- -- 63
2020-06-21 00:00:00 21.5 11 Norte 33 Norte 0 -- -- 58
2020-06-20 23:00:00 23.8 23 Norte 39 Norte 0 -- -- 49
2020-06-20 22:00:00 26.3 22 Norte 36 Noroeste 0 -- -- 43
2020-06-20 21:00:00 30 20 Noroeste 29 Noroeste 0 -- -- 31
2020-06-20 20:00:00 31.6 21 Noroeste 29 Noroeste 0 -- -- 26
2020-06-20 19:00:00 33 15 Oeste 32 Oeste 0 -- -- 24
2020-06-20 18:00:00 33.2 14 Noroeste 32 Noroeste 0 -- -- 25
2020-06-20 17:00:00 32.9 14 Noroeste 30 Noroeste 0 -- -- 26
2020-06-20 16:00:00 32 8 Noroeste 17 Oeste 0 -- -- 27
2020-06-20 15:00:00 30.9 7 Noroeste 17 Oeste 0 -- -- 29
2020-06-20 14:00:00 29.1 11 Sudoeste 16 Oeste 0 -- -- 32
2020-06-20 13:00:00 27 9 Oeste 13 Oeste 0 -- -- 36
2020-06-20 12:00:00 24.2 10 Oeste 15 Oeste 0 -- -- 41
2020-06-20 11:00:00 20.7 6 Oeste 11 Oeste 0 -- -- 53
2020-06-20 10:00:00 18.6 4 Oeste 9 Oeste 0 -- -- 61
2020-06-20 09:00:00 16.6 0 Calma 4 Norte 0 -- -- 67
2020-06-20 08:00:00 13.5 0 Calma 4 Norte 0 -- -- 75
2020-06-20 07:00:00 12.4 3 Norte 8 Noroeste 0 -- -- 80
2020-06-20 06:00:00 13.1 7 Norte 9 Norte 0 -- -- 76
2020-06-20 05:00:00 13.6 6 Norte 8 Norte 0 -- -- 74
2020-06-20 04:00:00 14.4 5 Norte 15 Norte 0 -- -- 71
2020-06-20 03:00:00 15.1 9 Norte 12 Nordeste 0 -- -- 67
2020-06-20 02:00:00 16.8 5 Nordeste 12 Norte 0 -- -- 60
2020-06-20 01:00:00 18.9 8 Norte 21 Norte 0 -- -- 52
2020-06-20 00:00:00 20.8 13 Norte 24 Noroeste 0 -- -- 50
2020-06-19 23:00:00 22.6 16 Noroeste 25 Norte 0 -- -- 48
2020-06-19 22:00:00 25 10 Noroeste 20 Noroeste 0 -- -- 33
2020-06-19 21:00:00 28.5 13 Noroeste 27 Noroeste 0 -- -- 24
2020-06-19 20:00:00 29.7 16 Noroeste 24 Noroeste 0 -- -- 23
2020-06-19 19:00:00 30.3 12 Oeste 22 Oeste 0 -- -- 25
2020-06-19 18:00:00 30.1 12 Oeste 22 Oeste 0 -- -- 26
2020-06-19 17:00:00 29.7 9 Noroeste 20 Oeste 0 -- -- 25
2020-06-19 16:00:00 28.4 8 Oeste 19 Sudoeste 0 -- -- 30
2020-06-19 15:00:00 26.8 7 Oeste 18 Oeste 0 -- -- 36
2020-06-19 14:00:00 24.7 8 Sudoeste 17 Sudoeste 0 -- -- 42
2020-06-19 13:00:00 22.8 11 Sudoeste 17 Sudoeste 0 -- -- 48
2020-06-19 12:00:00 21 8 Oeste 15 Sudoeste 0 -- -- 53
2020-06-19 11:00:00 18.2 6 Oeste 14 Oeste 0 -- -- 55
2020-06-19 10:00:00 17.1 3 Sudoeste 10 Norte 0 -- -- 68
2020-06-19 09:00:00 14.6 6 Noroeste 13 Noroeste 0 -- -- 82
2020-06-19 08:00:00 12.7 3 Norte 8 Noroeste 0 -- -- 88
2020-06-19 07:00:00 11.7 4 Norte 13 Noroeste 0 -- -- 89
2020-06-19 06:00:00 12.3 7 Noroeste 14 Noroeste 0 -- -- 84
2020-06-19 05:00:00 13.2 6 Noroeste 10 Noroeste 0 -- -- 77
2020-06-19 04:00:00 14 5 Noroeste 9 Noroeste 0 -- -- 74
2020-06-19 03:00:00 14.8 7 Noroeste 16 Noroeste 0 -- -- 72
2020-06-19 02:00:00 15.7 8 Noroeste 19 Norte 0 -- -- 68
2020-06-19 01:00:00 17.2 13 Norte 30 Noroeste 0 -- -- 61
2020-06-19 00:00:00 18.7 18 Norte 30 Noroeste 0 -- -- 55
2020-06-18 23:00:00 20.6 19 Norte 33 Noroeste 0 -- -- 49
2020-06-18 22:00:00 22.9 19 Norte 33 Noroeste 0 -- -- 45
2020-06-18 21:00:00 26.1 17 Noroeste 29 Noroeste 0 -- -- 37
2020-06-18 20:00:00 27.5 18 Noroeste 31 Noroeste 0 -- -- 33
2020-06-18 19:00:00 28.6 14 Noroeste 30 Noroeste 0 -- -- 32
2020-06-18 18:00:00 28.8 16 Noroeste 28 Noroeste 0 -- -- 33
2020-06-18 17:00:00 28.7 13 Noroeste 26 Oeste 0 -- -- 33
2020-06-18 16:00:00 27.7 8 Noroeste 25 Oeste 0 -- -- 36
2020-06-18 15:00:00 25.9 6 Oeste 15 Oeste 0 -- -- 42
2020-06-18 14:00:00 24.4 10 Oeste 18 Oeste 0 -- -- 46
2020-06-18 13:00:00 22.2 8 Oeste 18 Sudoeste 0 -- -- 52
2020-06-18 12:00:00 20.1 9 Oeste 15 Noroeste 0 -- -- 60
2020-06-18 11:00:00 17.9 7 Oeste 12 Oeste 0 -- -- 67
2020-06-18 10:00:00 16 8 Oeste 14 Oeste 0 -- -- 74
2020-06-18 09:00:00 14.3 9 Norte 14 Norte 0 -- -- 80
2020-06-18 08:00:00 12.1 2 Norte 12 Noroeste 0 -- -- 90
2020-06-18 07:00:00 11.1 6 Noroeste 11 Noroeste 0 -- -- 89
2020-06-18 06:00:00 11.9 6 Norte 15 Noroeste 0 -- -- 85
2020-06-18 05:00:00 12.8 9 Noroeste 13 Noroeste 0 -- -- 81
2020-06-18 04:00:00 13.7 7 Noroeste 12 Noroeste 0 -- -- 77
2020-06-18 03:00:00 14.7 7 Noroeste 12 Noroeste 0 -- -- 72
2020-06-18 02:00:00 15.9 8 Norte 26 Norte 0 -- -- 68
2020-06-18 01:00:00 17.6 17 Norte 27 Norte 0 -- -- 61
2020-06-18 00:00:00 18.9 13 Norte 22 Norte 0 -- -- 58
2020-06-17 23:00:00 20.4 11 Norte 21 Noroeste 0 -- -- 52
2020-06-17 22:00:00 22.4 13 Noroeste 22 Noroeste 0 -- -- 44
2020-06-17 21:00:00 25.1 17 Noroeste 27 Noroeste 0 -- -- 38
2020-06-17 20:00:00 26.1 15 Noroeste 27 Oeste 0 -- -- 36
2020-06-17 19:00:00 26.6 17 Noroeste 32 Noroeste 0 -- -- 37
2020-06-17 18:00:00 27.1 15 Noroeste 31 Noroeste 0 -- -- 37
2020-06-17 17:00:00 26.5 10 Oeste 35 Noroeste 0 -- -- 37
2020-06-17 16:00:00 25.4 14 Noroeste 31 Oeste 0 -- -- 39
2020-06-17 15:00:00 24.6 13 Oeste 31 Noroeste 0 -- -- 39
2020-06-17 14:00:00 23.2 14 Noroeste 32 Noroeste 0 -- -- 40
2020-06-17 13:00:00 22.2 16 Noroeste 31 Noroeste 0 -- -- 44
2020-06-17 12:00:00 21.1 17 Noroeste 32 Noroeste 0 -- -- 50
2020-06-17 11:00:00 19.6 18 Noroeste 32 Norte 0 -- -- 53
2020-06-17 10:00:00 18 13 Noroeste 24 Norte 0 -- -- 61
2020-06-17 09:00:00 15.2 11 Noroeste 19 Noroeste 0 -- -- 76
2020-06-17 08:00:00 13.2 10 Noroeste 17 Noroeste 0 -- -- 84
2020-06-17 07:00:00 12.7 5 Norte 8 Noroeste 0 -- -- 84
2020-06-17 06:00:00 13.5 3 Noroeste 5 Noroeste 0 -- -- 79
2020-06-17 05:00:00 14.2 4 Norte 12 Norte 0 -- -- 75
2020-06-17 04:00:00 15.1 7 Noroeste 21 Norte 0 -- -- 71
2020-06-17 03:00:00 15.9 12 Norte 19 Norte 0 -- -- 69
2020-06-17 02:00:00 16.8 12 Norte 25 Norte 0 -- -- 68
2020-06-17 01:00:00 18.2 18 Norte 28 Norte 0 -- -- 65
2020-06-17 00:00:00 19.7 18 Norte 29 Norte 0 -- -- 63
2020-06-16 23:00:00 21 12 Norte 28 Norte 0 -- -- 60
2020-06-16 22:00:00 22.8 18 Norte 36 Norte 0 -- -- 54
2020-06-16 21:00:00 25.4 21 Noroeste 34 Noroeste 0 -- -- 47
2020-06-16 20:00:00 26.9 21 Noroeste 32 Noroeste 0 -- -- 41
2020-06-16 19:00:00 27.7 19 Noroeste 37 Oeste 0 -- -- 43
2020-06-16 18:00:00 27.9 22 Noroeste 35 Oeste 0 -- -- 41
2020-06-16 17:00:00 26.2 15 Oeste 27 Oeste 0 -- -- 50
2020-06-16 16:00:00 26.6 12 Oeste 27 Oeste 0 -- -- 50
2020-06-16 15:00:00 24.8 17 Oeste 33 Oeste 0 -- -- 56
2020-06-16 14:00:00 23.4 17 Oeste 33 Noroeste 0 -- -- 58
2020-06-16 13:00:00 22.8 22 Oeste 33 Oeste 0 -- -- 59
2020-06-16 12:00:00 21.6 16 Noroeste 24 Oeste 0 -- -- 56
2020-06-16 11:00:00 20.6 11 Noroeste 20 Oeste 0 -- -- 51
2020-06-16 10:00:00 18.1 4 Noroeste 11 Oeste 0 -- -- 66
2020-06-16 09:00:00 16.5 2 Noroeste 6 Noroeste 0 -- -- 76
2020-06-16 08:00:00 14.2 2 Sudeste 6 Este 0 -- -- 84
2020-06-16 07:00:00 13 0 Calma 6 Norte 0 -- -- 85
2020-06-16 06:00:00 13.4 0 Calma 7 Noroeste 0 -- -- 84
2020-06-16 05:00:00 14 4 Noroeste 9 Noroeste 0 -- -- 81
2020-06-16 04:00:00 15 7 Norte 15 Norte 0 -- -- 76
2020-06-16 03:00:00 16.4 13 Norte 27 Noroeste 0 -- -- 71
2020-06-16 02:00:00 18.2 14 Noroeste 27 Norte 0 -- -- 64
2020-06-16 01:00:00 19.1 15 Norte 28 Noroeste 0 -- -- 62
2020-06-16 00:00:00 20.1 15 Noroeste 25 Noroeste 0 -- -- 58
2020-06-15 23:00:00 20.5 12 Noroeste 17 Noroeste 0 -- -- 55
2020-06-15 22:00:00 21.6 12 Noroeste 24 Noroeste 0 -- -- 49
2020-06-15 21:00:00 23.1 18 Noroeste 29 Noroeste 0 -- -- 45
2020-06-15 20:00:00 24.8 15 Noroeste 32 Noroeste 0 -- -- 41
2020-06-15 19:00:00 25.6 17 Norte 33 Noroeste 0 -- -- 39
2020-06-15 18:00:00 27.3 15 Noroeste 41 Noroeste 0 -- -- 35
2020-06-15 17:00:00 27.2 18 Oeste 30 Oeste 0 -- -- 36
2020-06-15 16:00:00 26.7 13 Oeste 30 Oeste 0 -- -- 35
2020-06-15 15:00:00 25.7 17 Oeste 28 Oeste 0 -- -- 38
2020-06-15 14:00:00 24.4 14 Oeste 27 Oeste 0 -- -- 41
2020-06-15 13:00:00 23.3 15 Noroeste 32 Oeste 0 -- -- 43
2020-06-15 12:00:00 21.4 10 Oeste 21 Oeste 0 -- -- 53
2020-06-15 11:00:00 19.7 7 Oeste 14 Oeste 0 -- -- 59
2020-06-15 10:00:00 17.6 4 Noroeste 13 Norte 0 -- -- 68
2020-06-15 09:00:00 15.7 2 Sur 5 Este 0 -- -- 73
2020-06-15 08:00:00 12.9 0 Calma 3 Este 0 -- -- 83
2020-06-15 07:00:00 11.6 0 Calma 6 Noroeste 0 -- -- 85
2020-06-15 06:00:00 12.3 2 Oeste 4 Noroeste 0 -- -- 81
2020-06-15 05:00:00 13.4 2 Noroeste 5 Noroeste 0 -- -- 78
2020-06-15 04:00:00 14 0 Calma 5 Norte 0 -- -- 76
2020-06-15 03:00:00 14.7 3 Norte 6 Norte 0 -- -- 75
2020-06-15 02:00:00 15.4 4 Noroeste 8 Noroeste 0 -- -- 71
2020-06-15 01:00:00 16.1 6 Norte 14 Noroeste 0 -- -- 68
2020-06-15 00:00:00 17.8 10 Noroeste 17 Noroeste 0 -- -- 60
2020-06-14 23:00:00 19.4 12 Noroeste 22 Noroeste 0 -- -- 54
2020-06-14 22:00:00 21.3 13 Noroeste 31 Noroeste 0 -- -- 47
2020-06-14 21:00:00 23.9 21 Noroeste 31 Noroeste 0 -- -- 39
2020-06-14 20:00:00 25.6 18 Noroeste 38 Noroeste 0 -- -- 35
2020-06-14 19:00:00 26.5 14 Noroeste 32 Oeste 0 -- -- 34
2020-06-14 18:00:00 26.9 15 Noroeste 28 Oeste 0 -- -- 31
2020-06-14 17:00:00 26.5 15 Noroeste 38 Noroeste 0 -- -- 33
2020-06-14 16:00:00 26.7 15 Oeste 26 Noroeste 0 -- -- 32
2020-06-14 15:00:00 25.6 14 Oeste 29 Noroeste 0 -- -- 35
2020-06-14 14:00:00 24.6 9 Oeste 22 Sudoeste 0 -- -- 37
2020-06-14 13:00:00 23.2 8 Oeste 22 Sudoeste 0 -- -- 41
2020-06-14 12:00:00 21.7 7 Noroeste 18 Norte 0 -- -- 46
2020-06-14 11:00:00 19.4 6 Oeste 13 Oeste 0 -- -- 57
2020-06-14 10:00:00 17.4 4 Noroeste 10 Oeste 0 -- -- 70
2020-06-14 09:00:00 14.6 0 Calma 5 Sudeste 0 -- -- 81
2020-06-14 08:00:00 12.1 2 Sudeste 5 Sudeste 0 -- -- 86
2020-06-14 07:00:00 11.7 0 Calma 5 Noroeste 0 -- -- 90
2020-06-14 06:00:00 12.1 3 Nordeste 6 Sudeste 0 -- -- 88
2020-06-14 05:00:00 13 3 Sur 5 Noroeste 0 -- -- 83
2020-06-14 04:00:00 13.7 0 Calma 5 Noroeste 0 -- -- 82
2020-06-14 03:00:00 13.9 2 Norte 6 Norte 0 -- -- 80
2020-06-14 02:00:00 14.8 3 Noroeste 9 Noroeste 0 -- -- 75
2020-06-14 01:00:00 15.4 8 Norte 11 Noroeste 0 -- -- 70
2020-06-14 00:00:00 16.6 8 Noroeste 13 Norte 0 -- -- 65
2020-06-13 23:00:00 18.1 10 Norte 18 Norte 0 -- -- 58
2020-06-13 22:00:00 20.1 10 Noroeste 22 Noroeste 0 -- -- 50
2020-06-13 21:00:00 23.1 16 Noroeste 23 Noroeste 0 -- -- 41
2020-06-13 20:00:00 24.5 9 Oeste 22 Noroeste 0 -- -- 39
2020-06-13 19:00:00 23.1 12 Oeste 25 Sudoeste 0 -- -- 41
2020-06-13 18:00:00 23 13 Sudoeste 20 Sudoeste 0 -- -- 40
2020-06-13 17:00:00 22.8 10 Sudoeste 22 Sudoeste 0 -- -- 41
2020-06-13 16:00:00 23 6 Sudoeste 23 Oeste 0 -- -- 42
2020-06-13 15:00:00 22.8 15 Sudoeste 26 Oeste 0 -- -- 42
2020-06-13 14:00:00 22.5 11 Oeste 20 Sudoeste 0 -- -- 42
2020-06-13 13:00:00 20.9 8 Oeste 21 Sudoeste 0 -- -- 48
2020-06-13 12:00:00 19.4 8 Sudoeste 15 Sudoeste 0 -- -- 57
2020-06-13 11:00:00 17.9 8 Oeste 13 Oeste 0 -- -- 66
2020-06-13 10:00:00 16.3 5 Sur 11 Sur 0 -- -- 76
2020-06-13 09:00:00 13.6 5 Sudeste 10 Este 0 -- -- 89
2020-06-13 08:00:00 10.9 7 Este 10 Sudeste 0 -- -- 94
2020-06-13 07:00:00 10.5 5 Sudeste 9 Sudeste 0 -- -- 95
2020-06-13 06:00:00 11 0 Calma 9 Sudeste 0 -- -- 94
2020-06-13 05:00:00 11.5 5 Norte 8 Este 0 -- -- 93
2020-06-13 04:00:00 11.6 4 Este 11 Noroeste 0 -- -- 91
2020-06-13 03:00:00 12.7 6 Noroeste 14 Noroeste 0 -- -- 89
2020-06-13 02:00:00 13.5 8 Noroeste 17 Oeste 0 -- -- 87
2020-06-13 01:00:00 13.9 6 Oeste 12 Oeste 0 -- -- 84
2020-06-13 00:00:00 14.9 9 Oeste 26 Oeste 0 -- -- 79
2020-06-12 23:00:00 15.4 11 Noroeste 27 Noroeste 0 -- -- 80
2020-06-12 22:00:00 16.2 16 Oeste 28 Noroeste 0 -- -- 76
2020-06-12 21:00:00 15.4 18 Norte 45 Noroeste 0.2 -- -- 79
2020-06-12 20:00:00 18 10 Noroeste 35 Noroeste 0 -- -- 72
2020-06-12 19:00:00 20.7 19 Oeste 38 Oeste 0 -- -- 51
2020-06-12 18:00:00 21.1 19 Oeste 33 Noroeste 0 -- -- 50
2020-06-12 17:00:00 21.4 23 Oeste 36 Oeste 0 -- -- 50
2020-06-12 16:00:00 21.3 15 Oeste 27 Noroeste 0 -- -- 49
2020-06-12 15:00:00 20.1 12 Oeste 33 Oeste 0 -- -- 51
2020-06-12 14:00:00 17.8 24 Oeste 37 Oeste 0 -- -- 63
2020-06-12 13:00:00 18.4 13 Oeste 36 Noroeste 0 -- -- 57
2020-06-12 12:00:00 18.3 19 Oeste 30 Oeste 0 -- -- 56
2020-06-12 11:00:00 17.1 14 Noroeste 25 Noroeste 0 -- -- 60
2020-06-12 10:00:00 16.2 16 Oeste 26 Noroeste 0 -- -- 66
2020-06-12 09:00:00 14.6 14 Oeste 23 Oeste 0 -- -- 75
2020-06-12 08:00:00 14 11 Oeste 21 Oeste 0 -- -- 77
2020-06-12 07:00:00 13.8 10 Noroeste 16 Noroeste 0 -- -- 78
2020-06-12 06:00:00 13.1 7 Noroeste 16 Oeste 0 -- -- 80
2020-06-12 05:00:00 13.9 10 Oeste 22 Noroeste 0 -- -- 75
2020-06-12 04:00:00 14.6 13 Noroeste 25 Noroeste 0 -- -- 72
2020-06-12 03:00:00 15 18 Noroeste 27 Noroeste 0 -- -- 69
2020-06-12 02:00:00 15.5 18 Noroeste 27 Noroeste 0 -- -- 68
2020-06-12 01:00:00 16.3 16 Noroeste 33 Noroeste 0 -- -- 67
2020-06-12 00:00:00 17.1 18 Noroeste 31 Noroeste 0 -- -- 63